createdAt,value
2024-05-09T00:00:40.672Z,10.3372
2024-05-09T00:01:47.944Z,10.3212
2024-05-09T00:02:54.199Z,10.2785
2024-05-09T00:04:02.456Z,10.3212
2024-05-09T00:05:09.421Z,10.2651
2024-05-09T00:06:15.546Z,10.3212
2024-05-09T00:07:21.709Z,10.2785
2024-05-09T00:08:28.884Z,10.3078
2024-05-09T00:09:35.216Z,10.2384
2024-05-09T00:10:41.673Z,10.2945
2024-05-09T00:11:48.011Z,10.2384
2024-05-09T00:12:54.293Z,10.3078
2024-05-09T00:14:00.907Z,10.2518
2024-05-09T00:15:07.253Z,10.2651
2024-05-09T00:16:13.339Z,10.2785
2024-05-09T00:17:19.578Z,10.2090
2024-05-09T00:18:25.873Z,10.2090
2024-05-09T00:19:32.265Z,10.2224
2024-05-09T00:20:40.841Z,10.2651
2024-05-09T00:21:50.448Z,10.1823
2024-05-09T00:22:57.232Z,10.1957
2024-05-09T00:24:03.221Z,10.1823
2024-05-09T00:25:09.710Z,10.1530
2024-05-09T00:26:15.837Z,10.1102
2024-05-09T00:27:22.047Z,10.1396
2024-05-09T00:28:28.814Z,10.1263
2024-05-09T00:29:35.041Z,10.2224
2024-05-09T00:30:41.273Z,10.1396
2024-05-09T00:32:03.187Z,10.1530
2024-05-09T00:33:10.780Z,10.0275
2024-05-09T00:34:18.859Z,9.8859
2024-05-09T00:35:25.936Z,9.9714
2024-05-09T00:36:32.661Z,10.0275
2024-05-09T00:38:05.047Z,9.9847
2024-05-09T00:39:12.180Z,9.9847
2024-05-09T00:40:27.086Z,9.9714
2024-05-09T00:41:31.763Z,9.9981
2024-05-09T00:42:38.613Z,9.9847
2024-05-09T00:43:45.535Z,9.9287
2024-05-09T00:44:57.188Z,10.0408
2024-05-09T00:46:05.409Z,10.0114
2024-05-09T00:47:15.474Z,10.0835
2024-05-09T00:48:22.763Z,10.0275
2024-05-09T00:49:31.556Z,10.0542
2024-05-09T00:50:38.810Z,10.0969
2024-05-09T00:51:49.414Z,10.0542
2024-05-09T00:52:56.623Z,10.0542
2024-05-09T00:54:17.906Z,10.0835
2024-05-09T00:55:25.517Z,10.1263
2024-05-09T00:56:38.508Z,10.1663
2024-05-09T00:57:45.591Z,10.1823
2024-05-09T00:58:52.210Z,10.1823
2024-05-09T01:00:09.899Z,10.1663
2024-05-09T01:01:19.610Z,10.2090
2024-05-09T01:02:41.205Z,10.2384
2024-05-09T01:03:55.081Z,10.2090
2024-05-09T01:05:02.020Z,10.2785
2024-05-09T01:06:09.603Z,10.2518
2024-05-09T01:07:17.720Z,10.2945
2024-05-09T01:08:25.548Z,10.2945
2024-05-09T01:09:35.692Z,10.3372
2024-05-09T01:10:45.189Z,10.3372
2024-05-09T01:11:55.690Z,10.3212
2024-05-09T01:13:05.106Z,10.3799
2024-05-09T01:14:13.670Z,10.3960
2024-05-09T01:15:36.728Z,10.4360
2024-05-09T01:16:44.728Z,10.3960
2024-05-09T01:18:06.646Z,10.4360
2024-05-09T01:20:41.677Z,10.4360
2024-05-09T01:21:49.958Z,10.4948
2024-05-09T01:23:00.022Z,10.4520
2024-05-09T01:24:10.414Z,10.4787
2024-05-09T01:25:24.028Z,10.4787
2024-05-09T01:26:32.195Z,10.4787
2024-05-09T01:27:41.202Z,10.4948
2024-05-09T01:28:49.185Z,10.4654
2024-05-09T01:32:19.649Z,10.4948
2024-05-09T01:32:19.649Z,10.5215
2024-05-09T01:33:26.567Z,10.5776
2024-05-09T01:34:36.052Z,10.5081
2024-05-09T01:35:43.636Z,10.4948
2024-05-09T01:39:11.727Z,10.4787
2024-05-09T01:39:11.727Z,10.4948
2024-05-09T01:43:27.820Z,10.5348
2024-05-09T01:43:27.820Z,10.5776
2024-05-09T01:44:42.551Z,10.5909
2024-05-09T01:45:50.686Z,10.5909
2024-05-09T01:47:28.193Z,10.5081
2024-05-09T01:51:20.006Z,10.4654
2024-05-09T01:51:20.006Z,10.5776
2024-05-09T01:52:29.705Z,10.5348
2024-05-09T01:53:40.593Z,10.5348
2024-05-09T01:55:40.583Z,10.5348
2024-05-09T02:04:39.678Z,10.5215
2024-05-09T02:04:39.678Z,10.5215
2024-05-09T02:06:25.931Z,10.6336
2024-05-09T02:07:31.911Z,10.6470
2024-05-09T02:08:50.123Z,10.6069
2024-05-09T02:10:00.264Z,10.6764
2024-05-09T02:11:06.976Z,10.6069
2024-05-09T02:12:13.689Z,10.5909
2024-05-09T02:13:25.341Z,10.6336
2024-05-09T02:14:38.766Z,10.6336
2024-05-09T02:19:34.471Z,10.6069
2024-05-09T02:20:41.943Z,10.6069
2024-05-09T02:21:58.592Z,10.6897
2024-05-09T02:23:21.720Z,10.5642
2024-05-09T02:25:48.593Z,10.5909
2024-05-09T02:26:55.613Z,10.5642
2024-05-09T02:28:26.754Z,10.6470
2024-05-09T02:29:41.757Z,10.5509
2024-05-09T02:31:16.720Z,10.5909
2024-05-09T02:32:26.993Z,10.5776
2024-05-09T02:33:56.973Z,10.5909
2024-05-09T02:35:04.602Z,10.5642
2024-05-09T02:43:25.973Z,10.5776
2024-05-09T02:43:25.973Z,10.5509
2024-05-09T02:44:42.754Z,10.5509
2024-05-09T02:48:21.934Z,10.5509
2024-05-09T02:48:21.934Z,10.5509
2024-05-09T02:49:37.807Z,10.5776
2024-05-09T02:52:22.792Z,10.5081
2024-05-09T02:53:42.771Z,10.4787
2024-05-09T02:54:57.628Z,10.5081
2024-05-09T02:56:10.823Z,10.4787
2024-05-09T02:57:52.771Z,10.5081
2024-05-09T03:03:50.460Z,10.4654
2024-05-09T03:03:50.460Z,10.5348
2024-05-09T03:05:02.837Z,10.5348
2024-05-09T03:08:38.977Z,10.5509
2024-05-09T03:08:38.977Z,10.5215
2024-05-09T03:09:59.099Z,10.5348
2024-05-09T03:13:23.131Z,10.5081
2024-05-09T03:13:23.131Z,10.5642
2024-05-09T03:19:44.481Z,10.4787
2024-05-09T03:19:44.481Z,10.4787
2024-05-09T03:21:07.366Z,10.5509
2024-05-09T03:23:05.799Z,10.5215
2024-05-09T03:26:39.721Z,10.5215
2024-05-09T03:26:39.721Z,10.4787
2024-05-09T03:28:10.271Z,10.5081
2024-05-09T03:30:15.452Z,10.4787
2024-05-09T03:31:26.275Z,10.4787
2024-05-09T03:32:59.316Z,10.5509
2024-05-09T03:37:38.079Z,10.6203
2024-05-09T03:37:38.079Z,10.5509
2024-05-09T03:41:30.498Z,10.6069
2024-05-09T03:41:30.498Z,10.5509
2024-05-09T03:52:51.967Z,10.5348
2024-05-09T03:52:51.967Z,10.5215
2024-05-09T03:54:24.210Z,10.5348
2024-05-09T03:55:45.915Z,10.5509
2024-05-09T03:58:04.904Z,10.5348
2024-05-09T03:59:32.839Z,10.5642
2024-05-09T04:01:14.384Z,10.5509
2024-05-09T04:02:20.909Z,10.5642
2024-05-09T04:03:27.364Z,10.5909
2024-05-09T04:04:33.886Z,10.5642
2024-05-09T04:05:41.078Z,10.5909
2024-05-09T04:06:49.374Z,10.6630
2024-05-09T04:07:56.403Z,10.6336
2024-05-09T04:09:02.438Z,10.6470
2024-05-09T04:10:11.278Z,10.6630
2024-05-09T04:11:20.946Z,10.6336
2024-05-09T04:12:27.938Z,10.5348
2024-05-09T04:13:34.123Z,10.5642
2024-05-09T04:14:40.280Z,10.5642
2024-05-09T04:15:46.409Z,10.6203
2024-05-09T04:16:52.517Z,10.5776
2024-05-09T04:17:58.847Z,10.6203
2024-05-09T04:19:05.053Z,10.6069
2024-05-09T04:20:21.059Z,10.6203
2024-05-09T04:21:23.134Z,10.6336
2024-05-09T04:22:29.082Z,10.5776
2024-05-09T04:23:35.875Z,10.6069
2024-05-09T04:24:43.118Z,10.5909
2024-05-09T04:25:50.052Z,10.6069
2024-05-09T04:27:11.069Z,10.6764
2024-05-09T04:28:17.109Z,10.7057
2024-05-09T04:29:23.354Z,10.7324
2024-05-09T04:30:36.758Z,10.7324
2024-05-09T04:31:41.448Z,10.6470
2024-05-09T04:32:47.740Z,10.6470
2024-05-09T04:33:53.956Z,10.7191
2024-05-09T04:35:00.240Z,10.6897
2024-05-09T04:36:06.438Z,10.7752
2024-05-09T04:37:13.357Z,10.7458
2024-05-09T04:38:20.449Z,10.7324
2024-05-09T04:39:26.639Z,10.7458
2024-05-09T04:40:36.071Z,10.7057
2024-05-09T04:41:43.700Z,10.7885
2024-05-09T04:42:50.399Z,10.7618
2024-05-09T04:43:56.629Z,10.7458
2024-05-09T04:45:02.776Z,10.7458
2024-05-09T04:46:08.821Z,10.7618
2024-05-09T04:47:15.876Z,10.7752
2024-05-09T04:48:22.220Z,10.7458
2024-05-09T04:49:28.612Z,10.7458
2024-05-09T04:50:38.190Z,10.7885
2024-05-09T04:51:47.441Z,10.7458
2024-05-09T04:52:53.568Z,10.7885
2024-05-09T04:53:59.765Z,10.8179
2024-05-09T04:55:05.938Z,10.8446
2024-05-09T04:56:12.127Z,10.7458
2024-05-09T04:57:18.203Z,10.8179
2024-05-09T04:58:24.476Z,10.8019
2024-05-09T04:59:30.599Z,10.8179
2024-05-09T05:00:38.302Z,10.7885
2024-05-09T05:01:45.806Z,10.8019
2024-05-09T05:02:52.195Z,10.8312
2024-05-09T05:03:58.646Z,10.8019
2024-05-09T05:05:05.040Z,10.8312
2024-05-09T05:06:13.884Z,10.8740
2024-05-09T05:07:20.042Z,10.8179
2024-05-09T05:08:26.130Z,10.8179
2024-05-09T05:09:32.338Z,10.7752
2024-05-09T05:10:38.492Z,10.8312
2024-05-09T05:11:44.654Z,10.8873
2024-05-09T05:12:51.436Z,10.8740
2024-05-09T05:13:57.527Z,10.8579
2024-05-09T05:15:03.774Z,10.8446
2024-05-09T05:16:10.174Z,10.9167
2024-05-09T05:17:16.804Z,10.9007
2024-05-09T05:18:24.051Z,10.8873
2024-05-09T05:19:31.254Z,10.9300
2024-05-09T05:20:37.954Z,10.9434
2024-05-09T05:21:44.061Z,10.9567
2024-05-09T05:22:51.034Z,10.9567
2024-05-09T05:23:57.125Z,10.9861
2024-05-09T05:25:03.110Z,11.0288
2024-05-09T05:26:09.172Z,11.0288
2024-05-09T05:27:15.355Z,10.9567
2024-05-09T05:28:21.532Z,10.9861
2024-05-09T05:29:27.853Z,10.9995
2024-05-09T05:30:35.015Z,10.9728
2024-05-09T05:31:41.622Z,10.9728
2024-05-09T05:32:47.908Z,10.9434
2024-05-09T05:33:54.183Z,10.9728
2024-05-09T05:35:00.341Z,11.0128
2024-05-09T05:36:06.488Z,10.9300
2024-05-09T05:37:12.568Z,10.9728
2024-05-09T05:38:19.159Z,11.0288
2024-05-09T05:39:28.827Z,11.0288
2024-05-09T05:40:37.562Z,11.0288
2024-05-09T05:41:45.093Z,11.0288
2024-05-09T05:42:51.174Z,11.1437
2024-05-09T05:43:57.331Z,11.0422
2024-05-09T05:45:05.089Z,11.1303
2024-05-09T05:46:12.866Z,11.1143
2024-05-09T05:47:22.108Z,11.1009
2024-05-09T05:48:31.012Z,11.1009
2024-05-09T05:49:37.894Z,11.0742
2024-05-09T05:50:46.006Z,11.0288
2024-05-09T05:51:52.391Z,11.0422
2024-05-09T05:52:58.676Z,11.0288
2024-05-09T05:54:04.887Z,11.0582
2024-05-09T05:55:11.034Z,10.9728
2024-05-09T05:56:17.215Z,11.0422
2024-05-09T05:57:23.348Z,11.1143
2024-05-09T05:58:29.495Z,11.0582
2024-05-09T05:59:36.442Z,11.0742
2024-05-09T06:00:43.423Z,11.1143
2024-05-09T06:01:49.608Z,11.0422
2024-05-09T06:02:55.839Z,11.0582
2024-05-09T06:04:01.918Z,11.0742
2024-05-09T06:05:08.218Z,11.1303
2024-05-09T06:06:14.479Z,11.1143
2024-05-09T06:07:21.433Z,11.2131
2024-05-09T06:08:30.144Z,11.1570
2024-05-09T06:09:36.958Z,11.2291
2024-05-09T06:10:43.122Z,11.2558
2024-05-09T06:11:49.472Z,11.2692
2024-05-09T06:12:55.555Z,11.1570
2024-05-09T06:14:01.673Z,11.1864
2024-05-09T06:15:07.704Z,11.2131
2024-05-09T06:16:13.811Z,11.2291
2024-05-09T06:17:20.038Z,11.2425
2024-05-09T06:18:26.649Z,11.3119
2024-05-09T06:19:33.205Z,11.3252
2024-05-09T06:20:39.978Z,11.4107
2024-05-09T06:21:48.451Z,11.4401
2024-05-09T06:22:55.183Z,11.4668
2024-05-09T06:24:10.576Z,11.4961
2024-05-09T06:25:39.344Z,11.4801
2024-05-09T06:26:46.042Z,11.5522
2024-05-09T06:27:52.137Z,11.6911
2024-05-09T06:28:58.334Z,11.6083
2024-05-09T06:30:05.201Z,11.6217
2024-05-09T06:31:11.483Z,11.7926
2024-05-09T06:32:18.108Z,11.8086
2024-05-09T06:33:24.610Z,11.7498
2024-05-09T06:34:30.902Z,11.8914
2024-05-09T06:35:40.203Z,11.8086
2024-05-09T06:36:46.600Z,11.9341
2024-05-09T06:37:52.828Z,11.9608
2024-05-09T06:38:58.962Z,12.0756
2024-05-09T06:40:10.069Z,12.1878
2024-05-09T06:41:17.069Z,12.1744
2024-05-09T06:42:23.682Z,12.2145
2024-05-09T06:43:29.894Z,12.1878
2024-05-09T06:44:36.093Z,12.1023
2024-05-09T06:45:42.391Z,12.2011
2024-05-09T06:46:48.563Z,12.0890
2024-05-09T06:48:01.605Z,12.2572
2024-05-09T06:49:09.309Z,12.2438
2024-05-09T06:50:23.912Z,12.3266
2024-05-09T06:51:33.567Z,12.3133
2024-05-09T06:52:43.235Z,12.4708
2024-05-09T06:53:49.636Z,12.6390
2024-05-09T06:54:57.058Z,12.5002
2024-05-09T06:56:26.259Z,12.2705
2024-05-09T06:58:05.378Z,12.3426
2024-05-09T06:59:11.913Z,12.2572
2024-05-09T07:00:26.801Z,12.2999
2024-05-09T07:01:31.063Z,12.2866
2024-05-09T07:02:37.723Z,12.4121
2024-05-09T07:03:45.268Z,12.3987
2024-05-09T07:04:54.763Z,12.5135
2024-05-09T07:06:04.483Z,12.4441
2024-05-09T07:09:06.093Z,12.3693
2024-05-09T07:09:06.093Z,12.4281
2024-05-09T07:10:18.063Z,12.3560
2024-05-09T07:11:31.593Z,12.3854
2024-05-09T07:12:40.747Z,12.2999
2024-05-09T07:13:49.513Z,12.3560
2024-05-09T07:14:55.701Z,12.2572
2024-05-09T07:16:04.759Z,12.3426
2024-05-09T07:17:11.504Z,12.3560
2024-05-09T07:18:19.916Z,12.3987
2024-05-09T07:19:27.034Z,12.3693
2024-05-09T07:20:34.977Z,12.3560
2024-05-09T07:21:45.069Z,12.3560
2024-05-09T07:22:53.933Z,12.4121
2024-05-09T07:24:03.294Z,12.4441
2024-05-09T07:25:10.783Z,12.4842
2024-05-09T07:26:18.818Z,12.4281
2024-05-09T07:27:26.685Z,12.4121
2024-05-09T07:28:33.203Z,12.5429
2024-05-09T07:29:40.089Z,12.6551
2024-05-09T07:30:47.524Z,12.6551
2024-05-09T07:31:53.684Z,12.6684
2024-05-09T07:33:00.720Z,12.7379
2024-05-09T07:34:07.389Z,12.7939
2024-05-09T07:35:15.816Z,12.8099
2024-05-09T07:36:22.546Z,12.7806
2024-05-09T07:37:29.390Z,12.8500
2024-05-09T07:38:36.669Z,12.8794
2024-05-09T07:39:43.364Z,12.7939
2024-05-09T07:40:49.748Z,12.8367
2024-05-09T07:41:56.584Z,12.8660
2024-05-09T07:43:03.104Z,12.7939
2024-05-09T07:44:09.377Z,12.7539
2024-05-09T07:45:38.960Z,12.7806
2024-05-09T07:47:36.441Z,12.8927
2024-05-09T07:49:11.994Z,12.8660
2024-05-09T07:50:35.274Z,12.8927
2024-05-09T07:52:22.652Z,12.8367
2024-05-09T07:53:32.469Z,12.8233
2024-05-09T07:53:44.763Z,12.8794
2024-05-09T07:54:53.218Z,12.8233
2024-05-09T07:55:59.645Z,12.7672
2024-05-09T07:57:05.957Z,12.7245
2024-05-09T07:58:12.166Z,12.7939
2024-05-09T07:59:18.448Z,12.8233
2024-05-09T08:00:30.850Z,12.8367
2024-05-09T08:01:38.107Z,12.8367
2024-05-09T08:02:45.936Z,12.8233
2024-05-09T08:03:52.712Z,12.8794
2024-05-09T08:04:59.712Z,12.6951
2024-05-09T08:06:05.952Z,12.6684
2024-05-09T08:07:12.283Z,12.8099
2024-05-09T08:08:18.547Z,12.8099
2024-05-09T08:09:24.942Z,12.9915
2024-05-09T08:10:31.136Z,12.8794
2024-05-09T08:11:37.791Z,12.8500
2024-05-09T08:12:44.208Z,12.8927
2024-05-09T08:13:50.473Z,12.8099
2024-05-09T08:14:56.911Z,12.9488
2024-05-09T08:16:03.613Z,13.0770
2024-05-09T08:17:10.643Z,13.0343
2024-05-09T08:18:17.300Z,12.9648
2024-05-09T08:19:24.557Z,13.0209
2024-05-09T08:20:33.909Z,13.1224
2024-05-09T08:21:43.308Z,13.3040
2024-05-09T08:22:49.738Z,13.3333
2024-05-09T08:23:56.083Z,13.2052
2024-05-09T08:25:02.479Z,13.3040
2024-05-09T08:26:08.748Z,13.2479
2024-05-09T08:27:15.065Z,13.0770
2024-05-09T08:28:21.349Z,13.1224
2024-05-09T08:29:27.630Z,13.1357
2024-05-09T08:30:37.174Z,13.1224
2024-05-09T08:31:44.928Z,13.0770
2024-05-09T08:32:51.162Z,13.0903
2024-05-09T08:33:57.683Z,13.2612
2024-05-09T08:35:04.223Z,13.2185
2024-05-09T08:36:25.078Z,13.1224
2024-05-09T08:37:36.632Z,13.0770
2024-05-09T08:38:43.431Z,13.1224
2024-05-09T08:39:49.768Z,13.0770
2024-05-09T08:40:55.963Z,13.1785
2024-05-09T08:42:02.110Z,13.2612
2024-05-09T08:43:08.606Z,13.2479
2024-05-09T08:44:15.382Z,13.2345
2024-05-09T08:45:21.452Z,13.2906
2024-05-09T08:46:27.690Z,13.3734
2024-05-09T08:47:34.144Z,13.4588
2024-05-09T08:48:40.642Z,13.5443
2024-05-09T08:49:47.677Z,13.2906
2024-05-09T08:50:54.021Z,13.4295
2024-05-09T08:52:00.262Z,13.3734
2024-05-09T08:53:06.599Z,13.6404
2024-05-09T08:54:12.601Z,13.6698
2024-05-09T08:55:18.836Z,13.6564
2024-05-09T08:56:26.087Z,13.9128
2024-05-09T08:57:32.434Z,13.8567
2024-05-09T08:58:38.510Z,13.9128
2024-05-09T08:59:44.624Z,13.9395
2024-05-09T09:00:50.961Z,13.9689
2024-05-09T09:01:57.687Z,14.1238
2024-05-09T09:03:03.946Z,14.1505
2024-05-09T09:04:10.444Z,14.0944
2024-05-09T09:05:16.998Z,14.0677
2024-05-09T09:06:23.285Z,14.0677
2024-05-09T09:07:29.915Z,13.9128
2024-05-09T09:08:36.061Z,13.8273
2024-05-09T09:09:42.269Z,13.5710
2024-05-09T09:10:48.555Z,13.6137
2024-05-09T09:11:54.782Z,13.6404
2024-05-09T09:13:00.988Z,13.5443
2024-05-09T09:14:07.147Z,13.6271
2024-05-09T09:15:13.553Z,13.5149
2024-05-09T09:16:22.709Z,13.5016
2024-05-09T09:17:29.270Z,13.4455
2024-05-09T09:18:35.589Z,13.5710
2024-05-09T09:19:41.916Z,13.5710
2024-05-09T09:20:48.956Z,13.5016
2024-05-09T09:21:56.022Z,13.7686
2024-05-09T09:23:02.585Z,13.7552
2024-05-09T09:24:09.973Z,13.8140
2024-05-09T09:25:16.373Z,13.7980
2024-05-09T09:26:22.735Z,13.7980
2024-05-09T09:27:29.195Z,13.9261
2024-05-09T09:28:35.284Z,13.9822
2024-05-09T09:29:41.518Z,14.0089
2024-05-09T09:30:47.876Z,14.1238
2024-05-09T09:31:56.702Z,14.1238
2024-05-09T09:33:03.353Z,14.3481
2024-05-09T09:34:09.894Z,14.3053
2024-05-09T09:35:16.147Z,14.5617
2024-05-09T09:36:22.558Z,14.6178
2024-05-09T09:37:29.121Z,14.4041
2024-05-09T09:38:35.831Z,14.5483
2024-05-09T09:39:42.098Z,14.6044
2024-05-09T09:40:50.097Z,14.6044
2024-05-09T09:41:56.565Z,14.4041
2024-05-09T09:43:02.817Z,14.3614
2024-05-09T09:44:09.516Z,14.4736
2024-05-09T09:45:15.643Z,14.5056
2024-05-09T09:46:21.813Z,14.4923
2024-05-09T09:47:28.048Z,14.6738
2024-05-09T09:48:34.685Z,14.7726
2024-05-09T09:49:41.464Z,14.7299
2024-05-09T09:50:48.030Z,14.7166
2024-05-09T09:51:54.478Z,14.7299
2024-05-09T09:53:00.828Z,14.7593
2024-05-09T09:54:07.179Z,14.7032
2024-05-09T09:55:14.193Z,14.7593
2024-05-09T09:56:20.351Z,14.9409
2024-05-09T09:57:26.760Z,15.1705
2024-05-09T09:58:32.846Z,15.1705
2024-05-09T09:59:38.887Z,15.1251
2024-05-09T10:00:46.307Z,15.0530
2024-05-09T10:01:52.888Z,15.2399
2024-05-09T10:02:59.562Z,15.3655
2024-05-09T10:04:07.416Z,15.3094
2024-05-09T10:05:13.952Z,15.2667
2024-05-09T10:06:20.420Z,15.3948
2024-05-09T10:07:26.663Z,15.2827
2024-05-09T10:08:33.173Z,15.0958
2024-05-09T10:09:39.415Z,15.0397
2024-05-09T10:10:46.325Z,15.1972
2024-05-09T10:11:59.701Z,15.4643
2024-05-09T10:13:05.911Z,15.5364
2024-05-09T10:14:12.577Z,15.7046
2024-05-09T10:15:18.961Z,15.7046
2024-05-09T10:16:25.722Z,15.7046
2024-05-09T10:17:32.772Z,15.8888
2024-05-09T10:18:39.553Z,15.7874
2024-05-09T10:19:46.259Z,15.7313
2024-05-09T10:20:52.626Z,15.9609
2024-05-09T10:21:58.924Z,16.0170
2024-05-09T10:23:20.215Z,16.1425
2024-05-09T10:24:26.546Z,16.0864
2024-05-09T10:25:32.823Z,16.2707
2024-05-09T10:26:39.099Z,16.6098
2024-05-09T10:27:45.435Z,16.6953
2024-05-09T10:28:51.601Z,16.8341
2024-05-09T10:29:57.829Z,16.6659
2024-05-09T10:31:04.077Z,16.8341
2024-05-09T10:32:10.474Z,16.7781
2024-05-09T10:33:16.665Z,16.8341
2024-05-09T10:34:23.364Z,16.9329
2024-05-09T10:35:29.450Z,17.0317
2024-05-09T10:36:35.770Z,16.8074
2024-05-09T10:37:41.939Z,16.8635
2024-05-09T10:38:48.200Z,16.4389
2024-05-09T10:39:54.474Z,16.1986
2024-05-09T10:41:00.637Z,16.1425
2024-05-09T10:42:07.140Z,16.2840
2024-05-09T10:43:13.348Z,15.6485
2024-05-09T10:44:19.569Z,15.5070
2024-05-09T10:45:25.636Z,15.7046
2024-05-09T10:46:32.057Z,15.7046
2024-05-09T10:47:39.264Z,15.6912
2024-05-09T10:48:45.640Z,15.9743
2024-05-09T10:49:52.674Z,15.9609
2024-05-09T10:50:59.167Z,16.0304
2024-05-09T10:52:05.255Z,15.9182
2024-05-09T10:53:11.451Z,15.5924
2024-05-09T10:54:20.531Z,15.6191
2024-05-09T10:55:26.870Z,15.1972
2024-05-09T10:56:33.141Z,15.3521
2024-05-09T10:57:39.574Z,15.2399
2024-05-09T10:58:45.676Z,15.4643
2024-05-09T10:59:54.641Z,15.6191
2024-05-09T11:01:05.462Z,15.9182
2024-05-09T11:02:14.014Z,16.0731
2024-05-09T11:03:20.851Z,15.8888
2024-05-09T11:04:27.058Z,16.0731
2024-05-09T11:05:33.477Z,16.4523
2024-05-09T11:06:40.408Z,16.4950
2024-05-09T11:07:47.189Z,16.8902
2024-05-09T11:08:53.331Z,17.2747
2024-05-09T11:10:00.104Z,17.4563
2024-05-09T11:11:08.233Z,17.1733
2024-05-09T11:12:15.786Z,17.1305
2024-05-09T11:13:22.420Z,17.3869
2024-05-09T11:14:29.779Z,16.7781
2024-05-09T11:15:36.395Z,16.7781
2024-05-09T11:17:11.317Z,16.7514
2024-05-09T11:18:15.947Z,16.4950
2024-05-09T11:19:20.992Z,16.5965
2024-05-09T11:20:29.739Z,16.4523
2024-05-09T11:21:34.685Z,16.5805
2024-05-09T11:22:38.815Z,16.6392
2024-05-09T11:23:43.321Z,17.1572
2024-05-09T11:24:48.299Z,17.7794
2024-05-09T11:25:52.470Z,18.2895
2024-05-09T11:26:56.538Z,18.0785
2024-05-09T11:28:00.687Z,17.7794
2024-05-09T11:29:05.816Z,17.7234
2024-05-09T11:30:14.457Z,17.9370
2024-05-09T11:31:20.043Z,18.0919
2024-05-09T11:32:24.260Z,17.9530
2024-05-09T11:33:28.912Z,17.9530
2024-05-09T11:34:35.238Z,18.0358
2024-05-09T11:35:39.368Z,17.4563
2024-05-09T11:36:43.579Z,16.8341
2024-05-09T11:37:47.769Z,16.5404
2024-05-09T11:38:52.364Z,16.3668
2024-05-09T11:39:56.628Z,16.3268
2024-05-09T11:41:00.925Z,16.1986
2024-05-09T11:42:05.829Z,16.0304
2024-05-09T11:43:10.127Z,16.4096
2024-05-09T11:44:14.425Z,16.4817
2024-05-09T11:45:18.511Z,16.4656
2024-05-09T11:46:23.510Z,16.5965
2024-05-09T11:47:27.511Z,16.6098
2024-05-09T11:48:31.801Z,16.5671
2024-05-09T11:49:36.190Z,16.5404
2024-05-09T11:50:40.203Z,16.6953
2024-05-09T11:51:44.396Z,16.5805
2024-05-09T11:52:48.466Z,16.8208
2024-05-09T11:53:52.711Z,16.6659
2024-05-09T11:54:56.838Z,16.2547
2024-05-09T11:56:01.065Z,16.0864
2024-05-09T11:57:05.324Z,16.1158
2024-05-09T11:58:09.549Z,16.2413
2024-05-09T11:59:13.719Z,16.4096
2024-05-09T12:00:25.214Z,16.4523
2024-05-09T12:01:28.346Z,16.6392
2024-05-09T12:02:33.083Z,16.9196
2024-05-09T12:03:37.546Z,16.8502
2024-05-09T12:04:41.921Z,16.9329
2024-05-09T12:05:46.447Z,17.0451
2024-05-09T12:06:50.784Z,17.0317
2024-05-09T12:07:56.056Z,17.0317
2024-05-09T12:09:00.240Z,17.2587
2024-05-09T12:10:06.059Z,17.4136
2024-05-09T12:11:14.905Z,17.5418
2024-05-09T12:12:19.060Z,17.4563
2024-05-09T12:13:23.341Z,17.7794
2024-05-09T12:14:27.617Z,17.5257
2024-05-09T12:15:31.924Z,17.4430
2024-05-09T12:16:36.322Z,17.6673
2024-05-09T12:17:40.600Z,18.0491
2024-05-09T12:18:45.620Z,18.1212
2024-05-09T12:19:49.908Z,17.4136
2024-05-09T12:20:54.129Z,17.2881
2024-05-09T12:21:58.454Z,17.3575
2024-05-09T12:23:02.616Z,17.2747
2024-05-09T12:24:06.855Z,17.0184
2024-05-09T12:25:11.889Z,17.1012
2024-05-09T12:26:16.130Z,16.9062
2024-05-09T12:27:21.316Z,17.0184
2024-05-09T12:28:25.642Z,17.0184
2024-05-09T12:29:30.022Z,16.9329
2024-05-09T12:30:38.062Z,17.0611
2024-05-09T12:31:44.504Z,17.9103
2024-05-09T12:32:48.952Z,18.2895
2024-05-09T12:33:53.323Z,18.1907
2024-05-09T12:34:57.764Z,18.2601
2024-05-09T12:36:02.015Z,18.7568
2024-05-09T12:37:06.218Z,18.9544
2024-05-09T12:38:11.265Z,19.0372
2024-05-09T12:39:15.548Z,18.5298
2024-05-09T12:40:31.831Z,18.8129
2024-05-09T12:41:59.919Z,19.1787
2024-05-09T12:43:09.997Z,19.0372
2024-05-09T12:44:18.058Z,19.0799
2024-05-09T12:45:23.274Z,19.2214
2024-05-09T12:46:36.802Z,19.2775
2024-05-09T12:47:50.557Z,19.6033
2024-05-09T12:49:07.336Z,19.0372
2024-05-09T12:50:29.876Z,18.8262
2024-05-09T12:51:32.345Z,18.5698
2024-05-09T12:52:39.299Z,18.0785
2024-05-09T12:54:04.169Z,18.1640
2024-05-09T12:55:16.614Z,17.5978
2024-05-09T12:56:30.315Z,17.9236
2024-05-09T12:57:44.816Z,18.0091
2024-05-09T12:58:59.080Z,18.0091
2024-05-09T13:00:14.176Z,17.7100
2024-05-09T13:01:24.178Z,17.4697
2024-05-09T13:02:34.052Z,17.4430
2024-05-09T13:03:45.989Z,17.4563
2024-05-09T13:05:07.809Z,17.7234
2024-05-09T13:06:12.133Z,17.8222
2024-05-09T13:07:18.941Z,17.9103
2024-05-09T13:08:23.271Z,17.9797
2024-05-09T13:09:28.914Z,18.1907
2024-05-09T13:10:33.768Z,18.2200
2024-05-09T13:11:38.514Z,18.2334
2024-05-09T13:12:44.667Z,18.5565
2024-05-09T13:13:49.286Z,18.6713
2024-05-09T13:14:55.024Z,18.8262
2024-05-09T13:16:00.430Z,18.6286
2024-05-09T13:17:04.519Z,18.6713
2024-05-09T13:18:10.491Z,19.0932
2024-05-09T13:19:15.500Z,19.7288
2024-05-09T13:20:29.118Z,20.8049
2024-05-09T13:21:30.648Z,20.5940
2024-05-09T13:22:34.830Z,19.9397
2024-05-09T13:23:39.450Z,19.9851
2024-05-09T13:24:43.867Z,19.9851
2024-05-09T13:25:48.424Z,19.4911
2024-05-09T13:26:52.865Z,19.2935
2024-05-09T13:27:57.794Z,19.0532
2024-05-09T13:29:02.535Z,18.9677
2024-05-09T13:30:11.873Z,19.6166
2024-05-09T13:31:18.423Z,19.3069
2024-05-09T13:32:23.292Z,19.4484
2024-05-09T13:33:28.255Z,19.6593
2024-05-09T13:34:32.846Z,19.1920
2024-05-09T13:35:38.277Z,18.8129
2024-05-09T13:36:42.883Z,19.0105
2024-05-09T13:37:48.667Z,19.0665
2024-05-09T13:38:53.093Z,19.2775
2024-05-09T13:39:58.152Z,19.5472
2024-05-09T13:41:02.786Z,19.2348
2024-05-09T13:42:07.501Z,19.3069
2024-05-09T13:43:12.366Z,19.3923
2024-05-09T13:44:17.237Z,19.1493
2024-05-09T13:45:21.383Z,19.5605
2024-05-09T13:46:25.886Z,19.9718
2024-05-09T13:47:32.163Z,19.9851
2024-05-09T13:48:36.774Z,20.0145
2024-05-09T13:49:42.181Z,19.6593
2024-05-09T13:50:47.458Z,18.9944
2024-05-09T13:51:52.009Z,18.5004
2024-05-09T13:52:56.479Z,18.4310
2024-05-09T13:54:00.737Z,18.2200
2024-05-09T13:55:05.101Z,18.4443
2024-05-09T13:56:10.126Z,18.1773
2024-05-09T13:57:17.400Z,18.2200
2024-05-09T13:58:23.050Z,18.2040
2024-05-09T13:59:31.379Z,17.9236
2024-05-09T14:00:44.358Z,17.8355
2024-05-09T14:01:47.203Z,18.2040
2024-05-09T14:02:51.948Z,18.2601
2024-05-09T14:03:58.045Z,18.3188
2024-05-09T14:05:02.621Z,18.4871
2024-05-09T14:06:09.432Z,18.8556
2024-05-09T14:07:17.978Z,18.3455
2024-05-09T14:08:23.702Z,18.5138
2024-05-09T14:09:28.475Z,18.7007
2024-05-09T14:10:33.797Z,18.9677
2024-05-09T14:11:38.689Z,18.5698
2024-05-09T14:12:42.974Z,18.6713
2024-05-09T14:13:48.102Z,18.8422
2024-05-09T14:14:52.339Z,18.7434
2024-05-09T14:15:56.804Z,18.7434
2024-05-09T14:17:01.294Z,18.6713
2024-05-09T14:18:08.107Z,18.4577
2024-05-09T14:19:14.320Z,18.0919
2024-05-09T14:20:28.301Z,18.2334
2024-05-09T14:21:29.741Z,18.5298
2024-05-09T14:22:34.450Z,18.5698
2024-05-09T14:23:39.368Z,18.9677
2024-05-09T14:24:45.664Z,19.2054
2024-05-09T14:25:51.973Z,19.3496
2024-05-09T14:26:57.167Z,19.5472
2024-05-09T14:28:01.485Z,19.2641
2024-05-09T14:29:06.392Z,19.4484
2024-05-09T14:30:18.138Z,21.0746
2024-05-09T14:31:21.067Z,20.7061
2024-05-09T14:32:25.247Z,20.8904
2024-05-09T14:33:31.097Z,21.9078
2024-05-09T14:36:47.627Z,22.4018
2024-05-09T14:36:47.627Z,22.0199
2024-05-09T14:38:06.869Z,20.7355
2024-05-09T14:39:37.228Z,19.6887
2024-05-09T14:41:19.979Z,19.5472
2024-05-09T14:42:25.645Z,19.4057
2024-05-09T14:43:35.121Z,19.0932
2024-05-09T14:44:52.194Z,18.9250